Time;durP1;ratioP1;P1;durP2;ratioP2;P2;SDS_P1;SDS_P2;PMS_P1;PMS_P2;Temp;Humidity;BMP_temperature;BMP_pressure;BME280_temperature;BME280_humidity;BME280_pressure;Samples;Min_cycle;Max_cycle;Signal;HPM_P1;HPM_P2
2024/04/23 00:00:09;;;;;;;0.20;0.20;;;;;;;5.19;70.71;99874.19;5528223;26;20005;-65
2024/04/23 00:02:39;;;;;;;1.27;0.80;;;;;;;5.24;70.54;99871.78;5527742;25;20025;-67
2024/04/23 00:05:10;;;;;;;0.73;0.73;;;;;;;5.28;70.68;99874.41;5528367;25;20013;-68
2024/04/23 00:07:41;;;;;;;0.95;0.95;;;;;;;5.32;70.48;99875.34;5527970;25;20001;-66
2024/04/23 00:10:09;;;;;;;1.40;1.30;;;;;;;5.33;71.11;99877.91;5527839;25;20034;-67
2024/04/23 00:12:39;;;;;;;1.55;1.05;;;;;;;5.34;71.43;99877.09;5527640;26;20069;-67
2024/04/23 00:15:07;;;;;;;0.80;0.80;;;;;;;5.29;71.81;99877.81;5527127;26;20077;-67
2024/04/23 00:17:38;;;;;;;2.53;1.23;;;;;;;5.22;72.25;99873.44;5526277;26;20009;-66
2024/04/23 00:20:09;;;;;;;1.30;1.20;;;;;;;5.17;72.76;99868.25;5527937;26;20499;-69
2024/04/23 00:22:40;;;;;;;1.00;0.95;;;;;;;5.22;73.22;99869.22;5525717;26;20012;-67
2024/04/23 00:25:08;;;;;;;0.65;0.65;;;;;;;5.21;73.29;99875.09;5527507;25;20381;-66
2024/04/23 00:27:38;;;;;;;1.73;1.38;;;;;;;5.20;73.68;99881.00;5527459;26;20463;-67
2024/04/23 00:30:07;;;;;;;1.95;0.80;;;;;;;5.17;73.90;99873.31;5527893;25;20013;-67
2024/04/23 00:32:38;;;;;;;2.45;1.00;;;;;;;5.16;74.43;99871.59;5527408;26;20031;-68
2024/04/23 00:35:09;;;;;;;2.17;1.70;;;;;;;5.17;74.65;99873.31;5525514;26;20009;-66
2024/04/23 00:37:40;;;;;;;1.00;0.95;;;;;;;5.17;74.86;99865.72;5527350;25;20050;-64
2024/04/23 00:40:08;;;;;;;2.90;1.48;;;;;;;5.17;75.27;99863.19;5527175;25;20008;-64
2024/04/23 00:42:39;;;;;;;1.73;1.13;;;;;;;5.25;75.85;99858.31;5527119;25;20037;-65
2024/04/23 00:45:08;;;;;;;0.60;0.60;;;;;;;5.31;76.28;99844.13;5527312;25;20002;-63
2024/04/23 00:47:38;;;;;;;0.90;0.90;;;;;;;5.35;76.46;99838.31;5527498;25;20025;-63
2024/04/23 00:50:10;;;;;;;1.20;1.15;;;;;;;5.30;76.81;99846.63;5525895;26;19998;-63
2024/04/23 00:52:41;;;;;;;0.95;0.93;;;;;;;5.26;77.56;99842.31;5525348;26;20009;-64
2024/04/23 00:55:10;;;;;;;0.77;0.77;;;;;;;5.18;77.90;99834.53;5527131;25;20009;-64
2024/04/23 00:57:42;;;;;;;;;;;;;;;5.19;78.28;99836.25;5527585;25;20017;-63
2024/04/23 01:00:11;;;;;;;0.88;0.88;;;;;;;5.12;78.66;99839.47;5526949;26;20430;-65
2024/04/23 01:02:42;;;;;;;0.68;0.65;;;;;;;5.02;78.62;99818.97;5527219;25;20021;-64
2024/04/23 01:05:13;;;;;;;0.57;0.57;;;;;;;5.07;79.41;99833.44;5527214;25;20002;-65
2024/04/23 01:07:43;;;;;;;0.70;0.70;;;;;;;5.09;79.61;99829.28;5527542;26;20427;-63
2024/04/23 01:10:12;;;;;;;2.75;1.77;;;;;;;5.09;80.02;99830.94;5526812;26;20069;-64
2024/04/23 01:12:43;;;;;;;0.70;0.70;;;;;;;5.07;80.28;99833.44;5527035;25;19997;-64
2024/04/23 01:15:13;;;;;;;1.23;1.13;;;;;;;4.96;80.77;99819.69;5526580;26;20001;-64
2024/04/23 01:17:46;;;;;;;1.75;1.65;;;;;;;4.96;81.09;99809.59;5524837;26;20016;-63
2024/04/23 01:20:19;;;;;;;2.08;1.45;;;;;;;5.09;81.10;99824.22;5526730;25;20029;-64
2024/04/23 01:23:00;;;;;;;1.42;1.33;;;;;;;5.14;81.64;99815.06;5526789;26;20038;-64
2024/04/23 01:25:29;;;;;;;1.13;1.05;;;;;;;5.06;81.83;99787.91;5526515;25;20001;-63
2024/04/23 01:28:02;;;;;;;2.65;1.45;;;;;;;5.24;81.84;99809.38;5529616;25;20009;-64
2024/04/23 01:30:31;;;;;;;0.63;0.63;;;;;;;5.34;82.13;99818.03;5529938;26;20025;-63
2024/04/23 01:33:05;;;;;;;0.65;0.65;;;;;;;5.33;82.24;99827.31;5530077;25;20331;-63
2024/04/23 01:35:33;;;;;;;2.15;2.00;;;;;;;5.31;82.00;99817.97;5530027;26;20007;-64
2024/04/23 01:38:05;;;;;;;0.82;0.80;;;;;;;5.27;82.48;99809.47;5530225;25;20010;-64
2024/04/23 01:40:33;;;;;;;0.75;0.75;;;;;;;5.26;82.40;99809.41;5530420;25;19997;-63
2024/04/23 01:43:07;;;;;;;0.68;0.68;;;;;;;5.09;82.28;99773.63;5529852;25;20046;-65
2024/04/23 01:45:36;;;;;;;2.03;1.88;;;;;;;5.28;82.86;99795.97;5528463;26;20073;-64
2024/04/23 01:48:07;;;;;;;1.05;1.00;;;;;;;5.34;82.88;99798.66;5529916;25;20035;-64
2024/04/23 01:50:36;;;;;;;2.55;2.35;;;;;;;5.38;82.65;99808.00;5529868;26;20340;-65
2024/04/23 01:53:07;;;;;;;0.40;0.40;;;;;;;5.42;82.84;99807.25;5529738;25;19997;-64
2024/04/23 01:55:35;;;;;;;1.00;0.98;;;;;;;5.43;82.89;99808.97;5529680;26;19998;-64
2024/04/23 01:58:08;;;;;;;1.08;0.60;;;;;;;5.36;82.63;99797.00;5529717;25;20029;-65
2024/04/23 02:00:38;;;;;;;0.57;0.57;;;;;;;5.38;82.52;99790.31;5530114;25;20008;-64
2024/04/23 02:03:09;;;;;;;;;;;;;;;5.42;82.80;99802.19;5530487;25;20004;-64
2024/04/23 02:05:40;;;;;;;0.30;0.30;;;;;;;5.37;82.47;99797.88;5530099;25;19924;-65
2024/04/23 02:08:11;;;;;;;0.52;0.52;;;;;;;5.27;82.58;99781.63;5529826;25;20002;-64
2024/04/23 02:10:42;;;;;;;0.75;0.73;;;;;;;5.36;82.88;99794.47;5529509;26;20364;-64
2024/04/23 02:13:15;;;;;;;3.38;1.65;;;;;;;5.37;82.74;99798.69;5529620;25;20068;-64
2024/04/23 02:15:43;;;;;;;0.63;0.63;;;;;;;5.35;82.71;99795.28;5529673;25;19997;-64
2024/04/23 02:18:14;;;;;;;1.15;1.05;;;;;;;5.35;83.10;99794.47;5529241;26;20029;-64
2024/04/23 02:20:42;;;;;;;0.60;0.60;;;;;;;5.44;83.35;99789.59;5529402;25;20001;-64
2024/04/23 02:23:12;;;;;;;1.65;1.40;;;;;;;5.42;83.35;99781.94;5529298;25;20008;-64
2024/04/23 02:25:40;;;;;;;0.60;0.60;;;;;;;5.40;83.45;99781.06;5529808;26;19998;-65
2024/04/23 02:28:11;;;;;;;0.68;0.68;;;;;;;5.37;83.44;99778.47;5529387;25;20001;-65
2024/04/23 02:30:41;;;;;;;2.17;1.10;;;;;;;5.36;83.31;99773.38;5529276;25;20346;-65
2024/04/23 02:33:12;;;;;;;0.82;0.82;;;;;;;5.37;83.56;99773.41;5529555;25;20403;-65
2024/04/23 02:35:40;;;;;;;1.58;0.93;;;;;;;5.36;83.22;99765.78;5527427;26;20013;-66
2024/04/23 02:38:11;;;;;;;1.83;1.50;;;;;;;5.40;83.59;99776.00;5528742;25;20069;-66
2024/04/23 02:40:39;;;;;;;0.32;0.32;;;;;;;5.37;83.37;99773.41;5527876;26;20001;-65
2024/04/23 02:43:09;;;;;;;0.45;0.45;;;;;;;5.37;83.42;99772.56;5527168;26;20012;-65
2024/04/23 02:45:37;;;;;;;1.00;0.57;;;;;;;5.34;83.12;99762.38;5529505;25;20400;-65
2024/04/23 02:48:11;;;;;;;0.80;0.80;;;;;;;5.29;82.93;99753.81;5528915;25;20388;-64
2024/04/23 02:50:39;;;;;;;0.77;0.77;;;;;;;5.38;83.10;99765.00;5529167;26;20046;-65
2024/04/23 02:53:09;;;;;;;0.98;0.90;;;;;;;5.31;82.99;99758.09;5528748;25;20025;-65
2024/04/23 02:55:37;;;;;;;2.42;1.40;;;;;;;5.29;82.79;99761.41;5528959;25;20037;-66
2024/04/23 02:58:09;;;;;;;0.70;0.70;;;;;;;5.27;82.72;99750.41;5529109;26;20008;-64
2024/04/23 03:00:36;;;;;;;2.45;1.40;;;;;;;5.27;82.94;99745.34;5528719;25;20471;-65
2024/04/23 03:03:10;;;;;;;0.45;0.45;;;;;;;5.28;83.36;99747.91;5529046;25;20392;-66
2024/04/23 03:05:41;;;;;;;0.40;0.40;;;;;;;5.21;83.28;99730.88;5528536;25;20072;-66
2024/04/23 03:08:09;;;;;;;1.00;0.90;;;;;;;5.21;83.06;99745.22;5529052;25;19993;-65
2024/04/23 03:10:40;;;;;;;0.98;0.93;;;;;;;5.18;83.11;99742.63;5528742;25;20026;-67
2024/04/23 03:13:09;;;;;;;0.60;0.60;;;;;;;5.18;83.37;99735.88;5528853;25;20009;-64
2024/04/23 03:15:39;;;;;;;1.48;1.38;;;;;;;5.22;83.62;99736.81;5528523;25;20001;-66
2024/04/23 03:18:10;;;;;;;0.73;0.73;;;;;;;5.25;83.57;99737.75;5528989;26;19997;-66
2024/04/23 03:20:41;;;;;;;0.55;0.55;;;;;;;5.26;83.39;99730.97;5528707;25;20466;-65
2024/04/23 03:23:09;;;;;;;0.50;0.50;;;;;;;5.14;83.58;99713.88;5528744;25;20005;-65
2024/04/23 03:25:39;;;;;;;2.72;1.08;;;;;;;5.27;83.37;99723.44;5528508;25;20072;-66
2024/04/23 03:28:07;;;;;;;0.80;0.80;;;;;;;5.27;83.45;99731.03;5528446;25;20012;-66
2024/04/23 03:30:38;;;;;;;0.68;0.68;;;;;;;5.24;83.53;99718.31;5528527;25;19998;-65
2024/04/23 03:33:06;;;;;;;0.50;0.50;;;;;;;5.25;83.82;99727.63;5528543;26;20516;-65
2024/04/23 03:35:39;;;;;;;1.13;1.02;;;;;;;5.35;83.85;99733.72;5528411;25;20012;-65
2024/04/23 03:38:10;;;;;;;1.17;1.10;;;;;;;5.34;83.80;99721.88;5528324;26;20009;-66
2024/04/23 03:40:40;;;;;;;1.42;1.33;;;;;;;5.39;83.65;99728.75;5528372;25;20001;-65
2024/04/23 03:43:11;;;;;;;0.60;0.60;;;;;;;5.33;83.69;99740.41;5528606;25;20440;-67
2024/04/23 03:45:42;;;;;;;0.80;0.80;;;;;;;5.27;83.64;99733.56;5528179;25;20487;-66
2024/04/23 03:48:13;;;;;;;0.73;0.73;;;;;;;5.14;83.48;99718.94;5528191;25;20008;-66
2024/04/23 03:50:44;;;;;;;3.20;1.45;;;;;;;5.18;83.52;99735.88;5525720;26;20021;-65
2024/04/23 03:53:15;;;;;;;0.38;0.38;;;;;;;5.15;83.61;99715.59;5528129;25;20013;-66
2024/04/23 03:55:42;;;;;;;2.83;1.10;;;;;;;5.22;83.69;99732.59;5526312;26;20050;-66
2024/04/23 03:58:13;;;;;;;0.80;0.75;;;;;;;5.25;84.26;99727.63;5527918;26;20006;-66
2024/04/23 04:00:44;;;;;;;1.38;1.27;;;;;;;5.28;83.87;99737.78;5527945;26;20012;-66
2024/04/23 04:08:38;;;;;;;0.70;0.70;;;;;;;5.24;83.90;99720.84;5527834;25;19990;-66
2024/04/23 04:11:06;;;;;;;2.45;2.08;;;;;;;5.31;83.72;99731.94;5528061;25;19997;-65
2024/04/23 04:13:39;;;;;;;2.90;1.70;;;;;;;5.26;83.82;99724.25;5527621;26;20038;-65
2024/04/23 04:16:07;;;;;;;0.73;0.73;;;;;;;5.28;84.03;99726.81;5527978;25;20013;-66
2024/04/23 04:18:39;;;;;;;0.95;0.95;;;;;;;5.34;84.00;99730.34;5527637;26;20069;-65
2024/04/23 04:21:09;;;;;;;1.58;0.88;;;;;;;5.38;84.13;99727.03;5528003;26;20001;-66
2024/04/23 04:23:40;;;;;;;0.90;0.90;;;;;;;5.41;83.87;99724.59;5527848;26;20005;-66
2024/04/23 04:26:11;;;;;;;0.52;0.52;;;;;;;5.46;83.79;99716.22;5528004;25;20013;-66
2024/04/23 04:28:42;;;;;;;0.93;0.93;;;;;;;5.47;83.88;99716.22;5527893;25;20001;-66
2024/04/23 04:31:12;;;;;;;0.40;0.40;;;;;;;5.54;84.05;99714.69;5527881;25;20451;-66
2024/04/23 04:33:42;;;;;;;;;;;;;;;5.55;84.00;99716.41;5527775;25;20408;-65
2024/04/23 04:36:13;;;;;;;0.30;0.30;;;;;;;5.59;83.82;99700.47;5527820;26;19923;-66
2024/04/23 04:38:43;;;;;;;0.93;0.90;;;;;;;5.63;83.80;99703.06;5527723;25;20033;-66
2024/04/23 04:41:11;;;;;;;1.15;1.10;;;;;;;5.73;83.70;99711.69;5527522;25;20401;-66
2024/04/23 04:43:42;;;;;;;1.13;1.05;;;;;;;5.79;83.94;99704.19;5527482;26;19997;-65
2024/04/23 04:46:10;;;;;;;0.63;0.63;;;;;;;5.83;83.88;99718.66;5525464;26;20113;-66
2024/04/23 04:48:40;;;;;;;0.50;0.50;;;;;;;5.83;83.71;99709.34;5527218;25;19997;-65
2024/04/23 04:51:08;;;;;;;0.73;0.73;;;;;;;5.85;83.51;99706.91;5527064;25;19997;-66
2024/04/23 04:53:42;;;;;;;0.40;0.40;;;;;;;5.84;83.63;99715.28;5525350;26;20005;-66
2024/04/23 04:56:10;;;;;;;1.83;1.73;;;;;;;5.88;83.68;99712.00;5527065;25;20454;-65
2024/04/23 04:58:41;;;;;;;0.52;0.52;;;;;;;5.97;83.74;99712.19;5526998;25;20068;-66
2024/04/23 05:01:09;;;;;;;1.25;1.15;;;;;;;6.03;83.54;99704.69;5527759;25;20435;-65
2024/04/23 05:03:40;;;;;;;0.55;0.55;;;;;;;6.03;83.46;99708.06;5530533;26;20017;-66
2024/04/23 05:06:07;;;;;;;1.42;1.15;;;;;;;5.98;83.42;99699.53;5530556;25;20012;-66
2024/04/23 05:08:41;;;;;;;1.33;1.23;;;;;;;6.02;83.58;99705.53;5530433;25;20073;-66
2024/04/23 05:11:09;;;;;;;0.88;0.63;;;;;;;6.07;83.67;99706.44;5528642;26;20331;-66
2024/04/23 05:13:39;;;;;;;1.48;1.33;;;;;;;6.10;83.60;99703.97;5530298;25;20471;-66
2024/04/23 05:16:07;;;;;;;1.15;1.05;;;;;;;6.07;82.81;99703.91;5530403;25;20013;-66
2024/04/23 05:18:38;;;;;;;0.52;0.52;;;;;;;6.12;82.72;99702.28;5530533;26;19998;-66
2024/04/23 05:21:06;;;;;;;1.65;1.20;;;;;;;6.13;82.71;99701.50;5528534;26;20462;-66
2024/04/23 05:23:36;;;;;;;2.45;1.88;;;;;;;6.14;82.37;99708.28;5530193;26;20012;-66
2024/04/23 05:26:07;;;;;;;0.55;0.55;;;;;;;6.16;81.93;99714.22;5530211;25;20013;-66
2024/04/23 05:28:37;;;;;;;1.33;0.90;;;;;;;6.19;82.33;99718.47;5530515;25;20009;-68
2024/04/23 05:33:47;;;;;;;2.67;0.93;;;;;;;6.30;81.86;99712.75;5530078;26;20356;-66
2024/04/23 05:36:22;;;;;;;2.83;1.98;;;;;;;6.35;81.28;99716.22;5529941;26;20001;-65
2024/04/23 05:38:53;;;;;;;1.88;1.52;;;;;;;6.39;81.15;99702.78;5530494;25;20012;-66
2024/04/23 05:41:26;;;;;;;0.63;0.63;;;;;;;6.48;81.07;99705.44;5528484;26;20336;-66
2024/04/23 05:43:58;;;;;;;1.05;1.00;;;;;;;6.57;81.15;99697.16;5530235;25;19997;-65
2024/04/23 05:46:30;;;;;;;0.50;0.50;;;;;;;6.54;80.15;99687.81;5527260;26;19993;-66
2024/04/23 05:49:22;;;;;;;1.48;1.38;;;;;;;6.55;79.70;99688.66;5529839;25;20013;-66
2024/04/23 05:52:25;;;;;;;1.55;1.45;;;;;;;6.56;79.66;99681.06;5530203;25;20424;-66
2024/04/23 05:55:32;;;;;;;0.50;0.50;;;;;;;6.59;79.40;99683.66;5529473;26;20479;-65
2024/04/23 05:58:03;;;;;;;3.08;2.80;;;;;;;6.60;78.84;99681.97;5529657;25;20013;-64
2024/04/23 06:00:35;;;;;;;2.30;1.60;;;;;;;6.65;78.62;99680.34;5530071;25;20068;-65
2024/04/23 06:03:03;;;;;;;0.88;0.85;;;;;;;6.52;78.01;99668.34;5530023;26;20009;-67
2024/04/23 06:05:34;;;;;;;3.67;1.73;;;;;;;6.67;77.74;99679.53;5529371;25;20459;-66
2024/04/23 06:08:02;;;;;;;1.48;1.38;;;;;;;6.72;77.45;99680.47;5529745;25;20009;-67
2024/04/23 06:10:33;;;;;;;0.45;0.45;;;;;;;6.78;77.31;99681.38;5529472;26;20069;-66
2024/04/23 06:13:07;;;;;;;1.40;1.02;;;;;;;6.83;76.82;99679.78;5528989;25;20458;-66
2024/04/23 06:15:35;;;;;;;0.82;0.82;;;;;;;6.52;77.02;99622.69;5529364;25;20001;-66
2024/04/23 06:18:06;;;;;;;1.02;0.93;;;;;;;6.91;76.89;99680.75;5529363;26;20016;-66
2024/04/23 06:20:34;;;;;;;1.02;0.95;;;;;;;6.95;76.38;99682.47;5529643;25;20009;-65
2024/04/23 06:23:04;;;;;;;1.02;1.00;;;;;;;7.00;76.01;99669.03;5527533;26;20001;-66
2024/04/23 06:25:32;;;;;;;1.17;1.08;;;;;;;7.03;76.15;99678.38;5529446;25;20344;-66
2024/04/23 06:28:08;;;;;;;0.50;0.50;;;;;;;7.13;76.44;99680.16;5529155;25;19998;-66
2024/04/23 06:30:36;;;;;;;0.73;0.73;;;;;;;7.21;76.00;99673.50;5529204;26;20433;-65
2024/04/23 06:33:07;;;;;;;2.50;1.85;;;;;;;7.27;76.60;99671.06;5529022;26;20013;-66
2024/04/23 06:35:35;;;;;;;0.40;0.40;;;;;;;7.40;76.31;99665.28;5527682;26;20002;-66
2024/04/23 06:38:06;;;;;;;0.32;0.32;;;;;;;7.66;76.63;99673.19;5529189;25;20016;-66
2024/04/23 06:40:34;;;;;;;0.57;0.57;;;;;;;7.93;76.25;99658.22;5529236;26;20069;-65
2024/04/23 06:43:07;;;;;;;0.68;0.68;;;;;;;8.14;75.14;99663.50;5529079;25;20009;-65
2024/04/23 06:45:35;;;;;;;2.03;1.85;;;;;;;8.08;73.62;99666.84;5529079;26;20000;-63
2024/04/23 06:48:06;;;;;;;0.95;0.90;;;;;;;8.10;73.39;99669.41;5529047;25;19998;-66
2024/04/23 06:50:34;;;;;;;0.60;0.60;;;;;;;8.31;72.99;99673.84;5529211;25;20002;-66
2024/04/23 06:53:04;;;;;;;0.70;0.70;;;;;;;8.48;71.89;99664.66;5526762;26;20005;-68
2024/04/23 06:55:34;;;;;;;0.73;0.73;;;;;;;8.36;71.23;99616.25;5529508;25;20001;-66
2024/04/23 06:58:08;;;;;;;1.42;1.25;;;;;;;8.70;70.47;99646.16;5526432;26;20074;-66
2024/04/23 07:00:36;;;;;;;1.00;1.00;;;;;;;8.98;69.79;99658.19;5526223;26;20416;-68
2024/04/23 07:03:07;;;;;;;1.40;1.30;;;;;;;8.90;69.03;99654.72;5528737;25;20028;-66
2024/04/23 07:05:37;;;;;;;0.63;0.63;;;;;;;8.85;68.90;99650.47;5528465;26;19997;-66
2024/04/23 07:08:06;;;;;;;1.17;1.13;;;;;;;8.90;69.22;99647.09;5526907;26;20001;-66
2024/04/23 07:10:36;;;;;;;0.60;0.60;;;;;;;9.06;69.60;99643.81;5528734;25;20053;-64
2024/04/23 07:13:07;;;;;;;1.15;1.05;;;;;;;9.19;69.27;99648.09;5528806;26;20013;-67
2024/04/23 07:15:38;;;;;;;0.93;0.93;;;;;;;9.19;69.12;99648.09;5526762;26;19997;-67
2024/04/23 07:18:07;;;;;;;1.67;1.58;;;;;;;9.15;68.71;99645.53;5528021;25;20010;-66
2024/04/23 07:20:38;;;;;;;1.40;1.27;;;;;;;9.25;68.96;99634.53;5526357;26;20331;-65
2024/04/23 07:23:10;;;;;;;0.68;0.68;;;;;;;9.19;68.33;99627.72;5526671;26;20001;-66
2024/04/23 07:25:41;;;;;;;0.85;0.82;;;;;;;9.07;68.31;99632.75;5527189;25;20009;-65
2024/04/23 07:28:12;;;;;;;0.95;0.88;;;;;;;9.04;68.74;99637.88;5528255;25;19997;-65
2024/04/23 07:30:42;;;;;;;1.58;0.95;;;;;;;9.13;68.65;99632.81;5526550;26;20033;-67
2024/04/23 07:33:10;;;;;;;0.63;0.63;;;;;;;9.15;68.36;99631.13;5528597;25;20002;-65
2024/04/23 07:35:42;;;;;;;0.70;0.70;;;;;;;9.28;68.20;99637.97;5528189;26;20451;-64
2024/04/23 07:38:11;;;;;;;1.58;1.10;;;;;;;9.30;68.30;99608.25;5528272;26;20013;-64
2024/04/23 07:40:43;;;;;;;7.13;3.90;;;;;;;9.55;68.03;99626.16;5528184;25;20448;-65
2024/04/23 07:43:15;;;;;;;1.83;1.30;;;;;;;9.62;68.06;99628.69;5528289;26;19998;-64
2024/04/23 07:45:45;;;;;;;3.13;1.75;;;;;;;9.75;67.80;99629.56;5527985;26;20008;-66
2024/04/23 07:48:13;;;;;;;1.60;1.45;;;;;;;9.79;67.28;99613.47;5528186;26;20444;-66
2024/04/23 07:50:44;;;;;;;2.00;1.15;;;;;;;9.85;66.78;99616.00;5528211;25;20073;-67
2024/04/23 07:53:12;;;;;;;0.90;0.90;;;;;;;9.75;67.05;99604.94;5528350;25;20013;-66
2024/04/23 07:55:43;;;;;;;1.30;1.20;;;;;;;9.88;67.00;99605.81;5527991;25;20467;-64
2024/04/23 07:58:11;;;;;;;2.13;1.10;;;;;;;10.00;66.96;99610.94;5528091;25;20005;-66
2024/04/23 08:00:45;;;;;;;1.13;1.02;;;;;;;9.67;66.56;99549.75;5528067;25;20009;-65
2024/04/23 08:03:12;;;;;;;1.80;1.42;;;;;;;10.03;66.43;99605.81;5528251;26;20009;-66
2024/04/23 08:05:44;;;;;;;0.60;0.60;;;;;;;9.68;65.75;99548.88;5527608;25;20073;-66
2024/04/23 08:08:12;;;;;;;1.27;1.17;;;;;;;9.91;65.12;99593.09;5527816;25;20009;-65
2024/04/23 08:10:44;;;;;;;1.33;1.23;;;;;;;9.88;65.14;99600.72;5528033;25;20001;-67
2024/04/23 08:13:13;;;;;;;0.82;0.80;;;;;;;9.88;65.04;99595.63;5527558;26;20017;-66
2024/04/23 08:15:46;;;;;;;1.02;0.93;;;;;;;9.90;65.38;99589.69;5525926;26;20001;-68
2024/04/23 08:18:14;;;;;;;1.67;1.35;;;;;;;9.88;65.42;99588.84;5525967;26;20013;-65
2024/04/23 08:20:45;;;;;;;0.57;0.57;;;;;;;10.05;65.84;99593.94;5527527;26;20029;-66
2024/04/23 08:23:13;;;;;;;1.13;1.02;;;;;;;10.04;65.12;99587.97;5527923;25;20009;-67
2024/04/23 08:25:43;;;;;;;1.85;1.23;;;;;;;10.01;65.29;99580.31;5527236;26;20077;-66
2024/04/23 08:28:15;;;;;;;5.63;2.15;;;;;;;9.95;65.36;99582.03;5527438;26;20008;-65
2024/04/23 08:30:49;;;;;;;0.50;0.50;;;;;;;9.96;65.77;99583.72;5527321;25;20005;-65
2024/04/23 08:33:19;;;;;;;0.77;0.77;;;;;;;9.93;65.80;99568.44;5527898;26;20008;-65
2024/04/23 08:35:48;;;;;;;0.30;0.30;;;;;;;10.02;65.34;99569.28;5527447;25;20014;-66
2024/04/23 08:38:19;;;;;;;0.45;0.40;;;;;;;10.00;65.59;99565.03;5527278;26;19997;-65
2024/04/23 08:40:47;;;;;;;0.90;0.77;;;;;;;10.01;65.57;99567.56;5527475;26;19997;-65
2024/04/23 08:43:22;;;;;;;1.52;1.23;;;;;;;10.01;65.66;99561.63;5527427;26;20016;-65
2024/04/23 08:45:55;;;;;;;1.70;1.60;;;;;;;10.04;65.72;99561.63;5527168;25;20371;-67
2024/04/23 08:48:29;;;;;;;2.53;1.52;;;;;;;10.11;65.59;99560.78;5527434;25;20013;-64
2024/04/23 08:51:02;;;;;;;2.20;1.17;;;;;;;10.17;66.02;99555.72;5527079;26;19998;-65
2024/04/23 08:53:36;;;;;;;0.65;0.65;;;;;;;10.17;66.07;99558.25;5527243;25;20005;-67
2024/04/23 08:56:12;;;;;;;0.50;0.50;;;;;;;10.15;65.54;99549.72;5527053;25;20002;-66
2024/04/23 08:58:44;;;;;;;2.28;1.85;;;;;;;10.10;65.13;99552.25;5527110;25;20001;-65
2024/04/23 09:01:27;;;;;;;1.05;0.80;;;;;;;10.08;65.30;99558.22;5527262;25;20014;-66
2024/04/23 09:03:56;;;;;;;1.02;1.00;;;;;;;9.99;65.63;99537.84;5527555;26;20495;-66
2024/04/23 09:06:28;;;;;;;1.08;0.98;;;;;;;10.02;65.58;99537.84;5526819;26;20012;-66
2024/04/23 09:08:58;;;;;;;0.80;0.80;;;;;;;10.11;65.87;99550.56;5526988;26;20077;-66
2024/04/23 09:11:29;;;;;;;4.63;1.38;;;;;;;10.04;65.82;99525.94;5525042;26;19997;-66
2024/04/23 09:13:57;;;;;;;17.80;1.75;;;;;;;10.05;65.79;99528.47;5527024;26;20046;-67
2024/04/23 09:16:30;;;;;;;0.60;0.60;;;;;;;10.08;65.77;99530.16;5526757;25;19997;-67
2024/04/23 09:18:58;;;;;;;0.68;0.68;;;;;;;10.06;65.87;99529.31;5526691;26;20043;-66
2024/04/23 09:21:29;;;;;;;0.82;0.82;;;;;;;10.07;65.67;99536.13;5526181;26;20009;-65
2024/04/23 09:24:00;;;;;;;0.82;0.82;;;;;;;10.02;65.57;99518.28;5524501;26;20011;-65
2024/04/23 09:26:31;;;;;;;1.48;1.38;;;;;;;10.07;65.72;99520.84;5526937;25;19994;-68
2024/04/23 09:28:59;;;;;;;1.15;1.05;;;;;;;10.07;66.02;99515.72;5526578;25;20033;-66
2024/04/23 09:31:38;;;;;;;1.33;1.23;;;;;;;10.13;66.36;99510.66;5526190;26;19997;-67
2024/04/23 09:34:10;;;;;;;1.23;1.13;;;;;;;10.16;66.59;99495.34;5524341;26;20001;-65
2024/04/23 09:36:41;;;;;;;1.60;1.17;;;;;;;10.22;66.80;99499.59;5526625;25;20047;-66
2024/04/23 09:39:15;;;;;;;0.80;0.80;;;;;;;10.23;66.73;99502.13;5526535;25;20472;-66
2024/04/23 09:41:57;;;;;;;5.45;1.77;;;;;;;10.27;66.99;99488.50;5525963;26;20009;-67
2024/04/23 09:44:26;;;;;;;1.58;1.48;;;;;;;10.34;66.80;99485.09;5526579;25;20316;-67
2024/04/23 09:46:59;;;;;;;1.05;0.95;;;;;;;10.41;67.51;99486.78;5525978;25;20493;-69
2024/04/23 09:49:33;;;;;;;1.35;1.25;;;;;;;10.32;68.02;99456.19;5529872;25;20001;-67
2024/04/23 09:52:04;;;;;;;1.70;1.42;;;;;;;10.46;68.19;99476.56;5529729;25;20459;-66
2024/04/23 09:54:40;;;;;;;0.80;0.80;;;;;;;10.47;68.39;99466.34;5529819;26;19998;-67
2024/04/23 09:57:11;;;;;;;1.52;1.42;;;;;;;10.47;68.10;99460.38;5529906;25;20002;-65
2024/04/23 09:59:39;;;;;;;1.35;1.15;;;;;;;10.52;68.47;99443.34;5528136;26;20002;-66
2024/04/23 10:02:18;;;;;;;1.40;1.30;;;;;;;10.59;68.28;99435.66;5529647;26;20012;-67
2024/04/23 10:04:49;;;;;;;0.55;0.55;;;;;;;10.65;67.90;99435.63;5530088;25;20041;-67
2024/04/23 10:07:23;;;;;;;0.70;0.70;;;;;;;10.75;67.63;99439.84;5529569;26;19997;-66
2024/04/23 10:09:52;;;;;;;0.70;0.68;;;;;;;10.89;67.10;99423.59;5527855;26;20558;-66
2024/04/23 10:12:26;;;;;;;1.00;0.98;;;;;;;11.01;66.84;99426.06;5529549;25;20010;-67
2024/04/23 10:15:03;;;;;;;1.38;1.15;;;;;;;11.04;66.55;99403.06;5529507;26;20097;-66
2024/04/23 10:17:44;;;;;;;1.35;1.25;;;;;;;11.38;65.87;99415.56;5529566;25;20009;-66
2024/04/23 10:20:17;;;;;;;1.15;1.05;;;;;;;11.46;65.33;99412.94;5529620;25;20002;-66
2024/04/23 10:22:48;;;;;;;0.73;0.63;;;;;;;11.66;64.05;99395.72;5529769;25;20001;-67
2024/04/23 10:25:18;;;;;;;0.50;0.50;;;;;;;11.91;64.13;99386.97;5527766;26;20001;-67
2024/04/23 10:27:50;;;;;;;1.05;0.82;;;;;;;12.17;63.39;99384.09;5527502;26;20013;-66
2024/04/23 10:30:18;;;;;;;1.33;1.15;;;;;;;12.37;61.28;99376.19;5529489;26;20001;-66
2024/04/23 10:32:52;;;;;;;0.63;0.63;;;;;;;12.26;61.32;99337.13;5529478;25;20435;-65
2024/04/23 10:35:26;;;;;;;0.38;0.38;;;;;;;12.34;59.54;99360.88;5527279;26;20176;-66
2024/04/23 10:37:54;;;;;;;2.10;1.65;;;;;;;12.28;59.70;99350.72;5528873;25;20012;-66
2024/04/23 10:40:26;;;;;;;1.00;0.95;;;;;;;12.39;59.48;99344.59;5528885;25;19997;-66
2024/04/23 10:42:55;;;;;;;1.08;1.05;;;;;;;12.60;57.93;99348.56;5529094;25;20009;-67
2024/04/23 10:45:27;;;;;;;0.70;0.70;;;;;;;12.47;58.15;99318.91;5529311;25;19998;-66
2024/04/23 10:48:06;;;;;;;0.70;0.70;;;;;;;12.90;57.91;99332.75;5529187;25;20009;-66
2024/04/23 10:50:37;;;;;;;0.65;0.65;;;;;;;13.23;57.73;99342.47;5529107;26;20001;-68
2024/04/23 10:53:07;;;;;;;1.95;1.50;;;;;;;13.34;56.74;99332.88;5528787;25;20340;-67
2024/04/23 10:55:39;;;;;;;1.20;0.90;;;;;;;13.21;56.33;99320.31;5529147;25;20510;-66
2024/04/23 10:58:07;;;;;;;0.85;0.85;;;;;;;13.11;55.16;99326.47;5528430;26;20005;-65
2024/04/23 11:00:38;;;;;;;0.88;0.88;;;;;;;12.95;55.98;99325.84;5527636;26;20009;-65
2024/04/23 11:03:17;;;;;;;0.77;0.77;;;;;;;12.80;55.37;99323.50;5529262;26;20026;-66
2024/04/23 11:05:49;;;;;;;2.72;0.95;;;;;;;12.70;55.71;99320.25;5528599;25;20344;-65
2024/04/23 11:08:22;;;;;;;1.00;0.60;;;;;;;12.65;55.13;99311.78;5528715;26;20448;-66
2024/04/23 11:10:55;;;;;;;0.52;0.52;;;;;;;12.65;55.22;99310.94;5528871;25;20045;-65
2024/04/23 11:13:27;;;;;;;0.65;0.65;;;;;;;12.63;54.96;99308.41;5528548;26;20412;-67
2024/04/23 11:16:01;;;;;;;0.75;0.75;;;;;;;12.47;53.96;99281.34;5528945;26;20009;-66
2024/04/23 11:18:41;;;;;;;1.08;0.80;;;;;;;12.78;54.53;99302.22;5527290;26;20009;-66
2024/04/23 11:21:13;;;;;;;0.57;0.57;;;;;;;12.84;54.41;99309.78;5528602;25;20037;-64
2024/04/23 11:23:42;;;;;;;2.22;0.77;;;;;;;12.89;53.89;99300.31;5528780;26;19998;-68
2024/04/23 11:26:13;;;;;;;0.60;0.60;;;;;;;13.02;53.22;99286.44;5528309;25;19997;-66
2024/04/23 11:28:42;;;;;;;1.52;1.42;;;;;;;13.29;53.73;99280.03;5528591;26;19997;-67
2024/04/23 11:31:15;;;;;;;1.00;0.98;;;;;;;13.72;53.13;99254.41;5528620;25;20013;-68
2024/04/23 11:33:49;;;;;;;0.77;0.77;;;;;;;13.88;52.19;99266.03;5528197;25;20016;-68
2024/04/23 11:36:27;;;;;;;1.85;1.67;;;;;;;13.87;51.65;99256.63;5528647;25;20005;-66
2024/04/23 11:39:00;;;;;;;1.58;1.00;;;;;;;13.86;51.54;99254.97;5528606;26;20009;-67
2024/04/23 11:41:32;;;;;;;0.68;0.68;;;;;;;13.77;51.53;99262.84;5528618;25;20460;-67
2024/04/23 11:44:03;;;;;;;1.60;0.73;;;;;;;13.81;51.69;99265.31;5528309;26;19998;-66
2024/04/23 11:46:34;;;;;;;0.50;0.50;;;;;;;13.77;51.61;99242.34;5528521;25;19997;-66
2024/04/23 11:49:05;;;;;;;1.05;0.93;;;;;;;13.97;51.56;99255.56;5528344;25;20047;-67
2024/04/23 11:51:35;;;;;;;1.27;0.65;;;;;;;14.20;50.92;99258.50;5528339;26;20428;-65
2024/04/23 11:54:05;;;;;;;0.88;0.80;;;;;;;14.28;50.77;99251.47;5527810;26;20069;-65
2024/04/23 11:56:35;;;;;;;;;;;;;;;14.33;49.83;99243.69;5528737;25;20012;-64
2024/04/23 11:59:03;;;;;;;1.50;1.30;;;;;;;14.34;49.82;99241.09;5528428;26;19924;-65
2024/04/23 12:01:34;;;;;;;0.60;0.60;;;;;;;14.33;49.38;99238.56;5527817;25;20002;-68
2024/04/23 12:04:09;;;;;;;0.60;0.60;;;;;;;14.44;49.38;99227.19;5527888;25;20052;-67